sensor_id;sensor_type;location;lat;lon;timestamp;P1;durP1;ratioP1;P2;durP2;ratioP2
45316;SDS011;31053;55.870;37.592;2024-03-17T00:01:44;13.35;;;4.63;;
45316;SDS011;31053;55.870;37.592;2024-03-17T00:04:48;10.52;;;3.55;;
45316;SDS011;31053;55.870;37.592;2024-03-17T00:07:53;33.85;;;5.95;;
45316;SDS011;31053;55.870;37.592;2024-03-17T00:10:57;25.60;;;5.28;;
45316;SDS011;31053;55.870;37.592;2024-03-17T00:14:02;19.02;;;5.75;;
45316;SDS011;31053;55.870;37.592;2024-03-17T00:17:07;17.50;;;4.13;;
45316;SDS011;31053;55.870;37.592;2024-03-17T00:20:12;17.27;;;4.20;;
45316;SDS011;31053;55.870;37.592;2024-03-17T00:23:23;13.85;;;4.68;;
45316;SDS011;31053;55.870;37.592;2024-03-17T00:26:28;14.70;;;3.80;;
45316;SDS011;31053;55.870;37.592;2024-03-17T00:29:33;12.85;;;4.30;;
45316;SDS011;31053;55.870;37.592;2024-03-17T00:32:38;23.73;;;6.38;;
45316;SDS011;31053;55.870;37.592;2024-03-17T00:35:44;31.73;;;4.53;;
45316;SDS011;31053;55.870;37.592;2024-03-17T00:38:52;14.98;;;5.18;;
45316;SDS011;31053;55.870;37.592;2024-03-17T00:41:56;16.42;;;4.28;;
45316;SDS011;31053;55.870;37.592;2024-03-17T00:45:01;19.85;;;4.97;;
45316;SDS011;31053;55.870;37.592;2024-03-17T00:48:09;13.25;;;4.15;;
45316;SDS011;31053;55.870;37.592;2024-03-17T00:51:13;20.85;;;4.25;;
45316;SDS011;31053;55.870;37.592;2024-03-17T00:54:17;11.50;;;3.88;;
45316;SDS011;31053;55.870;37.592;2024-03-17T00:57:22;26.20;;;4.82;;
45316;SDS011;31053;55.870;37.592;2024-03-17T01:00:27;17.75;;;4.65;;
45316;SDS011;31053;55.870;37.592;2024-03-17T01:03:32;23.38;;;8.25;;
45316;SDS011;31053;55.870;37.592;2024-03-17T01:06:37;14.02;;;4.72;;
45316;SDS011;31053;55.870;37.592;2024-03-17T01:09:46;12.98;;;4.03;;
45316;SDS011;31053;55.870;37.592;2024-03-17T01:12:52;25.40;;;5.03;;
45316;SDS011;31053;55.870;37.592;2024-03-17T01:15:57;16.20;;;4.93;;
45316;SDS011;31053;55.870;37.592;2024-03-17T01:19:01;13.13;;;3.67;;
45316;SDS011;31053;55.870;37.592;2024-03-17T01:22:06;39.28;;;5.95;;
45316;SDS011;31053;55.870;37.592;2024-03-17T01:25:11;11.27;;;4.10;;
45316;SDS011;31053;55.870;37.592;2024-03-17T01:28:16;38.65;;;9.15;;
45316;SDS011;31053;55.870;37.592;2024-03-17T01:31:20;21.35;;;5.82;;
45316;SDS011;31053;55.870;37.592;2024-03-17T01:34:25;31.45;;;8.88;;
45316;SDS011;31053;55.870;37.592;2024-03-17T01:37:29;22.85;;;6.25;;
45316;SDS011;31053;55.870;37.592;2024-03-17T01:40:36;28.58;;;5.53;;
45316;SDS011;31053;55.870;37.592;2024-03-17T01:43:41;26.17;;;4.65;;
45316;SDS011;31053;55.870;37.592;2024-03-17T01:46:46;19.63;;;4.95;;
45316;SDS011;31053;55.870;37.592;2024-03-17T01:49:50;10.55;;;5.47;;
45316;SDS011;31053;55.870;37.592;2024-03-17T01:52:56;15.75;;;3.47;;
45316;SDS011;31053;55.870;37.592;2024-03-17T01:56:04;13.95;;;4.00;;
45316;SDS011;31053;55.870;37.592;2024-03-17T01:59:09;20.80;;;5.75;;
45316;SDS011;31053;55.870;37.592;2024-03-17T02:02:14;26.33;;;4.75;;
45316;SDS011;31053;55.870;37.592;2024-03-17T02:05:18;24.40;;;7.07;;
45316;SDS011;31053;55.870;37.592;2024-03-17T02:08:23;31.00;;;5.32;;
45316;SDS011;31053;55.870;37.592;2024-03-17T02:11:29;21.48;;;4.28;;
45316;SDS011;31053;55.870;37.592;2024-03-17T02:14:35;25.55;;;6.72;;
45316;SDS011;31053;55.870;37.592;2024-03-17T02:17:40;20.15;;;4.72;;
45316;SDS011;31053;55.870;37.592;2024-03-17T02:20:45;21.80;;;4.78;;
45316;SDS011;31053;55.870;37.592;2024-03-17T02:23:59;39.72;;;8.40;;
45316;SDS011;31053;55.870;37.592;2024-03-17T02:27:04;18.50;;;6.18;;
45316;SDS011;31053;55.870;37.592;2024-03-17T02:30:09;14.90;;;5.03;;
45316;SDS011;31053;55.870;37.592;2024-03-17T02:33:14;22.20;;;5.18;;
45316;SDS011;31053;55.870;37.592;2024-03-17T02:36:19;17.95;;;5.35;;
45316;SDS011;31053;55.870;37.592;2024-03-17T02:39:23;24.15;;;5.82;;
45316;SDS011;31053;55.870;37.592;2024-03-17T02:42:40;12.50;;;5.35;;
45316;SDS011;31053;55.870;37.592;2024-03-17T02:45:48;17.45;;;6.15;;
45316;SDS011;31053;55.870;37.592;2024-03-17T02:48:53;21.25;;;5.60;;
45316;SDS011;31053;55.870;37.592;2024-03-17T02:51:58;22.83;;;5.97;;
45316;SDS011;31053;55.870;37.592;2024-03-17T02:55:03;15.05;;;4.35;;
45316;SDS011;31053;55.870;37.592;2024-03-17T02:58:08;21.33;;;4.88;;
45316;SDS011;31053;55.870;37.592;2024-03-17T03:01:13;12.60;;;5.82;;
45316;SDS011;31053;55.870;37.592;2024-03-17T03:07:24;17.20;;;7.03;;
45316;SDS011;31053;55.870;37.592;2024-03-17T03:10:29;24.52;;;7.65;;
45316;SDS011;31053;55.870;37.592;2024-03-17T03:13:33;22.25;;;7.03;;
45316;SDS011;31053;55.870;37.592;2024-03-17T03:16:38;23.75;;;6.88;;
45316;SDS011;31053;55.870;37.592;2024-03-17T03:19:43;23.38;;;8.20;;
45316;SDS011;31053;55.870;37.592;2024-03-17T03:22:48;23.73;;;7.18;;
45316;SDS011;31053;55.870;37.592;2024-03-17T03:25:56;26.40;;;7.85;;
45316;SDS011;31053;55.870;37.592;2024-03-17T03:29:03;23.92;;;8.23;;
45316;SDS011;31053;55.870;37.592;2024-03-17T03:32:08;22.17;;;6.70;;
45316;SDS011;31053;55.870;37.592;2024-03-17T03:35:13;20.45;;;7.63;;
45316;SDS011;31053;55.870;37.592;2024-03-17T03:38:18;24.15;;;7.60;;
45316;SDS011;31053;55.870;37.592;2024-03-17T03:41:23;27.90;;;10.23;;
45316;SDS011;31053;55.870;37.592;2024-03-17T03:44:30;23.95;;;8.18;;
45316;SDS011;31053;55.870;37.592;2024-03-17T03:47:35;18.20;;;8.45;;
45316;SDS011;31053;55.870;37.592;2024-03-17T03:50:40;17.52;;;7.57;;
45316;SDS011;31053;55.870;37.592;2024-03-17T03:53:44;30.27;;;9.77;;
45316;SDS011;31053;55.870;37.592;2024-03-17T03:56:49;21.83;;;7.50;;
45316;SDS011;31053;55.870;37.592;2024-03-17T03:59:53;17.05;;;6.78;;
45316;SDS011;31053;55.870;37.592;2024-03-17T04:02:59;13.60;;;4.90;;
45316;SDS011;31053;55.870;37.592;2024-03-17T04:09:11;29.52;;;7.57;;
45316;SDS011;31053;55.870;37.592;2024-03-17T04:12:15;21.52;;;6.55;;
45316;SDS011;31053;55.870;37.592;2024-03-17T04:15:20;17.45;;;6.57;;
45316;SDS011;31053;55.870;37.592;2024-03-17T04:18:25;16.60;;;7.40;;
45316;SDS011;31053;55.870;37.592;2024-03-17T04:21:30;15.55;;;5.35;;
45316;SDS011;31053;55.870;37.592;2024-03-17T04:24:34;20.92;;;6.88;;
45316;SDS011;31053;55.870;37.592;2024-03-17T04:27:39;19.05;;;6.22;;
45316;SDS011;31053;55.870;37.592;2024-03-17T04:30:44;17.27;;;5.38;;
45316;SDS011;31053;55.870;37.592;2024-03-17T04:33:51;14.20;;;5.65;;
45316;SDS011;31053;55.870;37.592;2024-03-17T04:36:57;20.73;;;6.97;;
45316;SDS011;31053;55.870;37.592;2024-03-17T04:40:03;51.67;;;10.27;;
45316;SDS011;31053;55.870;37.592;2024-03-17T04:43:08;22.10;;;7.97;;
45316;SDS011;31053;55.870;37.592;2024-03-17T04:46:13;27.50;;;6.97;;
45316;SDS011;31053;55.870;37.592;2024-03-17T04:49:19;32.75;;;11.57;;
45316;SDS011;31053;55.870;37.592;2024-03-17T04:52:24;36.85;;;11.40;;
45316;SDS011;31053;55.870;37.592;2024-03-17T04:55:29;22.60;;;7.50;;
45316;SDS011;31053;55.870;37.592;2024-03-17T04:58:34;34.08;;;11.25;;
45316;SDS011;31053;55.870;37.592;2024-03-17T05:01:39;27.50;;;9.15;;
45316;SDS011;31053;55.870;37.592;2024-03-17T05:04:43;33.28;;;10.85;;
45316;SDS011;31053;55.870;37.592;2024-03-17T05:07:48;25.25;;;8.13;;
45316;SDS011;31053;55.870;37.592;2024-03-17T05:11:00;33.05;;;7.63;;
45316;SDS011;31053;55.870;37.592;2024-03-17T05:14:12;19.40;;;7.43;;
45316;SDS011;31053;55.870;37.592;2024-03-17T05:17:18;17.02;;;7.30;;
45316;SDS011;31053;55.870;37.592;2024-03-17T05:20:25;25.00;;;9.40;;
45316;SDS011;31053;55.870;37.592;2024-03-17T05:23:30;41.97;;;10.27;;
45316;SDS011;31053;55.870;37.592;2024-03-17T05:26:36;23.98;;;9.10;;
45316;SDS011;31053;55.870;37.592;2024-03-17T05:29:41;27.95;;;9.15;;
45316;SDS011;31053;55.870;37.592;2024-03-17T05:32:46;23.77;;;9.38;;
45316;SDS011;31053;55.870;37.592;2024-03-17T05:35:51;32.42;;;8.27;;
45316;SDS011;31053;55.870;37.592;2024-03-17T05:38:58;27.42;;;10.77;;
45316;SDS011;31053;55.870;37.592;2024-03-17T05:42:03;20.80;;;7.13;;
45316;SDS011;31053;55.870;37.592;2024-03-17T05:45:09;25.23;;;10.02;;
45316;SDS011;31053;55.870;37.592;2024-03-17T05:48:17;30.90;;;10.43;;
45316;SDS011;31053;55.870;37.592;2024-03-17T05:51:22;27.23;;;9.73;;
45316;SDS011;31053;55.870;37.592;2024-03-17T05:54:29;17.35;;;8.32;;
45316;SDS011;31053;55.870;37.592;2024-03-17T05:57:34;46.40;;;13.20;;
45316;SDS011;31053;55.870;37.592;2024-03-17T06:00:39;37.08;;;10.52;;
45316;SDS011;31053;55.870;37.592;2024-03-17T06:03:45;39.03;;;13.23;;
45316;SDS011;31053;55.870;37.592;2024-03-17T06:06:50;46.30;;;13.13;;
45316;SDS011;31053;55.870;37.592;2024-03-17T06:09:55;37.50;;;11.98;;
45316;SDS011;31053;55.870;37.592;2024-03-17T06:13:00;24.13;;;9.98;;
45316;SDS011;31053;55.870;37.592;2024-03-17T06:16:05;33.75;;;9.68;;
45316;SDS011;31053;55.870;37.592;2024-03-17T06:19:22;30.63;;;11.27;;
45316;SDS011;31053;55.870;37.592;2024-03-17T06:22:32;34.72;;;12.80;;
45316;SDS011;31053;55.870;37.592;2024-03-17T06:26:11;35.20;;;9.32;;
45316;SDS011;31053;55.870;37.592;2024-03-17T06:29:24;33.35;;;10.15;;
45316;SDS011;31053;55.870;37.592;2024-03-17T06:32:30;46.23;;;16.57;;
45316;SDS011;31053;55.870;37.592;2024-03-17T06:35:39;24.58;;;9.65;;
45316;SDS011;31053;55.870;37.592;2024-03-17T06:38:45;49.28;;;11.80;;
45316;SDS011;31053;55.870;37.592;2024-03-17T06:41:49;38.28;;;12.23;;
45316;SDS011;31053;55.870;37.592;2024-03-17T06:44:55;27.23;;;11.07;;
45316;SDS011;31053;55.870;37.592;2024-03-17T06:48:02;33.38;;;10.85;;
45316;SDS011;31053;55.870;37.592;2024-03-17T06:51:08;34.15;;;11.00;;
45316;SDS011;31053;55.870;37.592;2024-03-17T06:54:21;24.33;;;10.52;;
45316;SDS011;31053;55.870;37.592;2024-03-17T06:57:26;33.13;;;11.05;;
45316;SDS011;31053;55.870;37.592;2024-03-17T07:00:32;38.17;;;13.10;;
45316;SDS011;31053;55.870;37.592;2024-03-17T07:03:37;36.35;;;13.02;;
45316;SDS011;31053;55.870;37.592;2024-03-17T07:09:48;33.22;;;10.77;;
45316;SDS011;31053;55.870;37.592;2024-03-17T07:12:53;39.70;;;15.02;;
45316;SDS011;31053;55.870;37.592;2024-03-17T07:15:58;19.30;;;8.52;;
45316;SDS011;31053;55.870;37.592;2024-03-17T07:19:03;31.27;;;11.30;;
45316;SDS011;31053;55.870;37.592;2024-03-17T07:22:09;27.05;;;8.70;;
45316;SDS011;31053;55.870;37.592;2024-03-17T07:25:15;31.83;;;10.73;;
45316;SDS011;31053;55.870;37.592;2024-03-17T07:28:26;28.08;;;10.77;;
45316;SDS011;31053;55.870;37.592;2024-03-17T07:31:34;40.22;;;10.15;;
45316;SDS011;31053;55.870;37.592;2024-03-17T07:34:42;42.97;;;11.68;;
45316;SDS011;31053;55.870;37.592;2024-03-17T07:37:50;37.40;;;11.68;;
45316;SDS011;31053;55.870;37.592;2024-03-17T07:41:10;33.28;;;11.80;;
45316;SDS011;31053;55.870;37.592;2024-03-17T07:44:15;44.38;;;12.05;;
45316;SDS011;31053;55.870;37.592;2024-03-17T07:47:20;39.85;;;13.07;;
45316;SDS011;31053;55.870;37.592;2024-03-17T07:50:25;41.03;;;11.55;;
45316;SDS011;31053;55.870;37.592;2024-03-17T07:53:43;32.83;;;11.65;;
45316;SDS011;31053;55.870;37.592;2024-03-17T07:56:49;28.55;;;10.75;;
45316;SDS011;31053;55.870;37.592;2024-03-17T07:59:54;36.95;;;11.10;;
45316;SDS011;31053;55.870;37.592;2024-03-17T08:02:59;28.23;;;10.82;;
45316;SDS011;31053;55.870;37.592;2024-03-17T08:06:07;35.60;;;9.48;;
45316;SDS011;31053;55.870;37.592;2024-03-17T08:09:15;43.83;;;11.02;;
45316;SDS011;31053;55.870;37.592;2024-03-17T08:12:20;35.72;;;10.10;;
45316;SDS011;31053;55.870;37.592;2024-03-17T08:15:25;42.35;;;11.10;;
45316;SDS011;31053;55.870;37.592;2024-03-17T08:18:30;40.40;;;10.85;;
45316;SDS011;31053;55.870;37.592;2024-03-17T08:21:35;25.83;;;10.40;;
45316;SDS011;31053;55.870;37.592;2024-03-17T08:24:44;32.92;;;10.73;;
45316;SDS011;31053;55.870;37.592;2024-03-17T08:27:56;53.58;;;15.57;;
45316;SDS011;31053;55.870;37.592;2024-03-17T08:31:02;68.72;;;17.08;;
45316;SDS011;31053;55.870;37.592;2024-03-17T08:34:08;52.03;;;16.55;;
45316;SDS011;31053;55.870;37.592;2024-03-17T08:37:14;60.85;;;13.50;;
45316;SDS011;31053;55.870;37.592;2024-03-17T08:40:21;61.78;;;16.73;;
45316;SDS011;31053;55.870;37.592;2024-03-17T08:43:29;48.55;;;13.73;;
45316;SDS011;31053;55.870;37.592;2024-03-17T08:46:41;33.05;;;12.10;;
45316;SDS011;31053;55.870;37.592;2024-03-17T08:49:52;30.08;;;10.23;;
45316;SDS011;31053;55.870;37.592;2024-03-17T08:52:57;56.75;;;14.38;;
45316;SDS011;31053;55.870;37.592;2024-03-17T08:56:02;43.58;;;12.82;;
45316;SDS011;31053;55.870;37.592;2024-03-17T08:59:07;44.47;;;12.30;;
45316;SDS011;31053;55.870;37.592;2024-03-17T09:05:44;36.05;;;12.38;;
45316;SDS011;31053;55.870;37.592;2024-03-17T09:08:51;49.97;;;11.20;;
45316;SDS011;31053;55.870;37.592;2024-03-17T09:11:56;36.15;;;10.73;;
45316;SDS011;31053;55.870;37.592;2024-03-17T09:15:01;40.70;;;10.05;;
45316;SDS011;31053;55.870;37.592;2024-03-17T09:18:08;87.90;;;15.73;;
45316;SDS011;31053;55.870;37.592;2024-03-17T09:21:13;39.13;;;10.98;;
45316;SDS011;31053;55.870;37.592;2024-03-17T09:24:18;52.00;;;11.40;;
45316;SDS011;31053;55.870;37.592;2024-03-17T09:27:25;65.57;;;13.93;;
45316;SDS011;31053;55.870;37.592;2024-03-17T09:30:30;58.53;;;14.10;;
45316;SDS011;31053;55.870;37.592;2024-03-17T09:33:35;54.25;;;14.40;;
45316;SDS011;31053;55.870;37.592;2024-03-17T09:36:40;55.40;;;13.02;;
45316;SDS011;31053;55.870;37.592;2024-03-17T09:39:46;37.10;;;11.35;;
45316;SDS011;31053;55.870;37.592;2024-03-17T09:42:52;38.22;;;11.00;;
45316;SDS011;31053;55.870;37.592;2024-03-17T09:45:56;55.80;;;15.52;;
45316;SDS011;31053;55.870;37.592;2024-03-17T09:49:04;42.35;;;13.13;;
45316;SDS011;31053;55.870;37.592;2024-03-17T09:52:09;39.50;;;11.98;;
45316;SDS011;31053;55.870;37.592;2024-03-17T09:55:26;41.75;;;12.98;;
45316;SDS011;31053;55.870;37.592;2024-03-17T09:58:31;37.10;;;10.77;;
45316;SDS011;31053;55.870;37.592;2024-03-17T10:01:35;51.58;;;12.00;;
45316;SDS011;31053;55.870;37.592;2024-03-17T10:04:40;63.50;;;16.20;;
45316;SDS011;31053;55.870;37.592;2024-03-17T10:07:44;48.88;;;11.02;;
45316;SDS011;31053;55.870;37.592;2024-03-17T10:10:52;60.58;;;15.80;;
45316;SDS011;31053;55.870;37.592;2024-03-17T10:14:05;41.22;;;11.95;;
45316;SDS011;31053;55.870;37.592;2024-03-17T10:17:12;45.08;;;11.07;;
45316;SDS011;31053;55.870;37.592;2024-03-17T10:20:17;40.50;;;11.25;;
45316;SDS011;31053;55.870;37.592;2024-03-17T10:23:25;49.75;;;11.90;;
45316;SDS011;31053;55.870;37.592;2024-03-17T10:26:31;58.00;;;12.90;;
45316;SDS011;31053;55.870;37.592;2024-03-17T10:29:36;38.72;;;10.15;;
45316;SDS011;31053;55.870;37.592;2024-03-17T10:32:40;29.70;;;8.57;;
45316;SDS011;31053;55.870;37.592;2024-03-17T10:35:44;52.80;;;11.20;;
45316;SDS011;31053;55.870;37.592;2024-03-17T10:38:52;29.65;;;10.20;;
45316;SDS011;31053;55.870;37.592;2024-03-17T10:41:58;34.38;;;10.45;;
45316;SDS011;31053;55.870;37.592;2024-03-17T10:45:06;39.42;;;10.90;;
45316;SDS011;31053;55.870;37.592;2024-03-17T10:48:13;33.05;;;8.20;;
45316;SDS011;31053;55.870;37.592;2024-03-17T10:51:20;22.02;;;7.78;;
45316;SDS011;31053;55.870;37.592;2024-03-17T10:54:25;41.10;;;10.93;;
45316;SDS011;31053;55.870;37.592;2024-03-17T11:00:41;15.50;;;5.47;;
45316;SDS011;31053;55.870;37.592;2024-03-17T11:03:46;29.27;;;7.00;;
45316;SDS011;31053;55.870;37.592;2024-03-17T11:06:51;32.22;;;7.50;;
45316;SDS011;31053;55.870;37.592;2024-03-17T11:09:56;35.85;;;8.77;;
45316;SDS011;31053;55.870;37.592;2024-03-17T11:13:02;27.77;;;7.63;;
45316;SDS011;31053;55.870;37.592;2024-03-17T11:16:24;39.55;;;8.80;;
45316;SDS011;31053;55.870;37.592;2024-03-17T11:19:29;30.95;;;7.10;;
45316;SDS011;31053;55.870;37.592;2024-03-17T11:22:43;36.60;;;8.52;;
45316;SDS011;31053;55.870;37.592;2024-03-17T11:25:52;38.47;;;10.55;;
45316;SDS011;31053;55.870;37.592;2024-03-17T11:28:58;24.40;;;6.97;;
45316;SDS011;31053;55.870;37.592;2024-03-17T11:35:42;27.43;;;6.70;;
45316;SDS011;31053;55.870;37.592;2024-03-17T11:38:58;16.38;;;5.85;;
45316;SDS011;31053;55.870;37.592;2024-03-17T11:42:05;16.90;;;5.70;;
45316;SDS011;31053;55.870;37.592;2024-03-17T11:45:17;28.73;;;5.15;;
45316;SDS011;31053;55.870;37.592;2024-03-17T11:48:35;19.42;;;5.63;;
45316;SDS011;31053;55.870;37.592;2024-03-17T11:57:22;13.45;;;4.82;;
45316;SDS011;31053;55.870;37.592;2024-03-17T12:00:27;17.27;;;4.88;;
45316;SDS011;31053;55.870;37.592;2024-03-17T12:03:33;17.38;;;5.32;;
45316;SDS011;31053;55.870;37.592;2024-03-17T12:06:38;23.65;;;4.40;;
45316;SDS011;31053;55.870;37.592;2024-03-17T12:09:43;15.95;;;4.35;;
45316;SDS011;31053;55.870;37.592;2024-03-17T12:12:52;11.88;;;4.53;;
45316;SDS011;31053;55.870;37.592;2024-03-17T12:16:18;15.35;;;4.80;;
45316;SDS011;31053;55.870;37.592;2024-03-17T12:19:22;22.70;;;6.10;;
45316;SDS011;31053;55.870;37.592;2024-03-17T12:22:28;15.65;;;4.55;;
45316;SDS011;31053;55.870;37.592;2024-03-17T12:25:37;15.40;;;4.22;;
45316;SDS011;31053;55.870;37.592;2024-03-17T12:28:45;16.55;;;5.18;;
45316;SDS011;31053;55.870;37.592;2024-03-17T12:31:50;16.55;;;4.55;;
45316;SDS011;31053;55.870;37.592;2024-03-17T12:34:56;21.48;;;4.95;;
45316;SDS011;31053;55.870;37.592;2024-03-17T12:38:19;31.33;;;7.22;;
45316;SDS011;31053;55.870;37.592;2024-03-17T12:41:26;29.90;;;6.85;;
45316;SDS011;31053;55.870;37.592;2024-03-17T12:44:31;31.20;;;7.00;;
45316;SDS011;31053;55.870;37.592;2024-03-17T12:47:37;13.07;;;5.03;;
45316;SDS011;31053;55.870;37.592;2024-03-17T12:50:49;22.33;;;6.55;;
45316;SDS011;31053;55.870;37.592;2024-03-17T12:54:14;20.33;;;6.35;;
45316;SDS011;31053;55.870;37.592;2024-03-17T12:57:20;22.00;;;4.78;;
45316;SDS011;31053;55.870;37.592;2024-03-17T13:00:43;32.40;;;7.18;;
45316;SDS011;31053;55.870;37.592;2024-03-17T13:03:48;29.05;;;5.65;;
45316;SDS011;31053;55.870;37.592;2024-03-17T13:06:54;24.20;;;5.43;;
45316;SDS011;31053;55.870;37.592;2024-03-17T13:09:59;20.15;;;5.68;;
45316;SDS011;31053;55.870;37.592;2024-03-17T13:13:04;25.60;;;6.25;;
45316;SDS011;31053;55.870;37.592;2024-03-17T13:16:11;24.58;;;6.03;;
45316;SDS011;31053;55.870;37.592;2024-03-17T13:19:20;28.70;;;7.03;;
45316;SDS011;31053;55.870;37.592;2024-03-17T13:22:28;23.85;;;6.82;;
45316;SDS011;31053;55.870;37.592;2024-03-17T13:25:36;21.83;;;7.47;;
45316;SDS011;31053;55.870;37.592;2024-03-17T13:28:42;21.40;;;5.40;;
45316;SDS011;31053;55.870;37.592;2024-03-17T13:31:47;37.42;;;7.38;;
45316;SDS011;31053;55.870;37.592;2024-03-17T13:34:52;43.90;;;7.90;;
45316;SDS011;31053;55.870;37.592;2024-03-17T13:38:08;50.53;;;7.50;;
45316;SDS011;31053;55.870;37.592;2024-03-17T13:41:16;25.20;;;5.63;;
45316;SDS011;31053;55.870;37.592;2024-03-17T13:44:21;38.25;;;9.30;;
45316;SDS011;31053;55.870;37.592;2024-03-17T13:47:25;28.50;;;5.68;;
45316;SDS011;31053;55.870;37.592;2024-03-17T13:56:16;27.77;;;7.65;;
45316;SDS011;31053;55.870;37.592;2024-03-17T13:59:21;20.83;;;5.30;;
45316;SDS011;31053;55.870;37.592;2024-03-17T14:02:26;25.77;;;3.92;;
45316;SDS011;31053;55.870;37.592;2024-03-17T14:05:31;16.67;;;5.57;;
45316;SDS011;31053;55.870;37.592;2024-03-17T14:08:38;37.22;;;9.38;;
45316;SDS011;31053;55.870;37.592;2024-03-17T14:11:42;35.25;;;7.90;;
45316;SDS011;31053;55.870;37.592;2024-03-17T14:14:47;35.05;;;12.55;;
45316;SDS011;31053;55.870;37.592;2024-03-17T14:17:55;32.25;;;9.70;;
45316;SDS011;31053;55.870;37.592;2024-03-17T14:20:59;42.30;;;9.20;;
45316;SDS011;31053;55.870;37.592;2024-03-17T14:24:04;23.33;;;7.15;;
45316;SDS011;31053;55.870;37.592;2024-03-17T14:27:12;27.10;;;6.97;;
45316;SDS011;31053;55.870;37.592;2024-03-17T14:30:17;36.28;;;7.20;;
45316;SDS011;31053;55.870;37.592;2024-03-17T14:33:23;28.17;;;7.10;;
45316;SDS011;31053;55.870;37.592;2024-03-17T14:36:30;23.02;;;6.63;;
45316;SDS011;31053;55.870;37.592;2024-03-17T14:39:37;25.95;;;6.80;;
45316;SDS011;31053;55.870;37.592;2024-03-17T14:42:42;24.23;;;6.10;;
45316;SDS011;31053;55.870;37.592;2024-03-17T14:45:48;27.02;;;6.13;;
45316;SDS011;31053;55.870;37.592;2024-03-17T14:48:53;25.40;;;7.30;;
45316;SDS011;31053;55.870;37.592;2024-03-17T14:51:58;36.17;;;8.02;;
45316;SDS011;31053;55.870;37.592;2024-03-17T14:55:03;20.45;;;5.90;;
45316;SDS011;31053;55.870;37.592;2024-03-17T14:58:08;17.55;;;5.80;;
45316;SDS011;31053;55.870;37.592;2024-03-17T15:01:14;34.10;;;8.50;;
45316;SDS011;31053;55.870;37.592;2024-03-17T15:04:19;42.22;;;8.77;;
45316;SDS011;31053;55.870;37.592;2024-03-17T15:07:24;28.98;;;6.75;;
45316;SDS011;31053;55.870;37.592;2024-03-17T15:10:29;19.10;;;6.72;;
45316;SDS011;31053;55.870;37.592;2024-03-17T15:13:34;25.55;;;6.55;;
45316;SDS011;31053;55.870;37.592;2024-03-17T15:16:39;53.25;;;8.68;;
45316;SDS011;31053;55.870;37.592;2024-03-17T15:19:46;39.17;;;8.02;;
45316;SDS011;31053;55.870;37.592;2024-03-17T15:22:51;28.83;;;6.90;;
45316;SDS011;31053;55.870;37.592;2024-03-17T15:25:58;27.38;;;5.60;;
45316;SDS011;31053;55.870;37.592;2024-03-17T15:29:11;38.70;;;9.23;;
45316;SDS011;31053;55.870;37.592;2024-03-17T15:32:16;25.63;;;6.65;;
45316;SDS011;31053;55.870;37.592;2024-03-17T15:35:21;32.17;;;7.45;;
45316;SDS011;31053;55.870;37.592;2024-03-17T15:38:26;45.88;;;8.43;;
45316;SDS011;31053;55.870;37.592;2024-03-17T15:41:30;33.83;;;8.88;;
45316;SDS011;31053;55.870;37.592;2024-03-17T15:44:37;42.28;;;8.63;;
45316;SDS011;31053;55.870;37.592;2024-03-17T15:47:42;26.10;;;6.40;;
45316;SDS011;31053;55.870;37.592;2024-03-17T15:50:53;30.77;;;5.70;;
45316;SDS011;31053;55.870;37.592;2024-03-17T15:53:58;44.78;;;7.95;;
45316;SDS011;31053;55.870;37.592;2024-03-17T15:57:03;29.45;;;5.63;;
45316;SDS011;31053;55.870;37.592;2024-03-17T16:00:08;26.70;;;5.68;;
45316;SDS011;31053;55.870;37.592;2024-03-17T16:03:22;50.63;;;6.65;;
45316;SDS011;31053;55.870;37.592;2024-03-17T16:06:28;40.25;;;7.50;;
45316;SDS011;31053;55.870;37.592;2024-03-17T16:09:32;23.77;;;5.38;;
45316;SDS011;31053;55.870;37.592;2024-03-17T16:12:37;32.63;;;6.72;;
45316;SDS011;31053;55.870;37.592;2024-03-17T16:15:43;53.35;;;7.10;;
45316;SDS011;31053;55.870;37.592;2024-03-17T16:18:48;28.48;;;5.95;;
45316;SDS011;31053;55.870;37.592;2024-03-17T16:21:54;42.00;;;7.75;;
45316;SDS011;31053;55.870;37.592;2024-03-17T16:24:59;32.63;;;6.15;;
45316;SDS011;31053;55.870;37.592;2024-03-17T16:28:04;44.53;;;8.93;;
45316;SDS011;31053;55.870;37.592;2024-03-17T16:31:18;55.35;;;10.80;;
45316;SDS011;31053;55.870;37.592;2024-03-17T16:34:24;45.25;;;8.90;;
45316;SDS011;31053;55.870;37.592;2024-03-17T16:37:35;42.92;;;8.40;;
45316;SDS011;31053;55.870;37.592;2024-03-17T16:40:40;40.53;;;8.32;;
45316;SDS011;31053;55.870;37.592;2024-03-17T16:47:42;28.40;;;6.90;;
45316;SDS011;31053;55.870;37.592;2024-03-17T16:50:32;38.20;;;7.50;;
45316;SDS011;31053;55.870;37.592;2024-03-17T16:53:39;25.90;;;5.03;;
45316;SDS011;31053;55.870;37.592;2024-03-17T16:56:43;41.50;;;7.85;;
45316;SDS011;31053;55.870;37.592;2024-03-17T17:05:31;38.40;;;4.80;;
45316;SDS011;31053;55.870;37.592;2024-03-17T17:08:35;40.55;;;7.32;;
45316;SDS011;31053;55.870;37.592;2024-03-17T17:11:40;51.45;;;8.63;;
45316;SDS011;31053;55.870;37.592;2024-03-17T17:14:48;46.45;;;7.93;;
45316;SDS011;31053;55.870;37.592;2024-03-17T17:17:53;28.30;;;6.13;;
45316;SDS011;31053;55.870;37.592;2024-03-17T17:21:01;46.03;;;9.85;;
45316;SDS011;31053;55.870;37.592;2024-03-17T17:24:05;22.70;;;5.97;;
45316;SDS011;31053;55.870;37.592;2024-03-17T17:27:10;46.10;;;7.35;;
45316;SDS011;31053;55.870;37.592;2024-03-17T17:30:17;33.97;;;7.10;;
45316;SDS011;31053;55.870;37.592;2024-03-17T17:33:21;28.00;;;7.25;;
45316;SDS011;31053;55.870;37.592;2024-03-17T17:36:26;36.08;;;7.28;;
45316;SDS011;31053;55.870;37.592;2024-03-17T17:39:32;35.00;;;6.82;;
45316;SDS011;31053;55.870;37.592;2024-03-17T17:42:37;25.83;;;6.88;;
45316;SDS011;31053;55.870;37.592;2024-03-17T17:45:41;52.33;;;10.25;;
45316;SDS011;31053;55.870;37.592;2024-03-17T17:48:46;20.50;;;6.97;;
45316;SDS011;31053;55.870;37.592;2024-03-17T17:51:50;20.13;;;5.97;;
45316;SDS011;31053;55.870;37.592;2024-03-17T17:54:55;39.72;;;8.48;;
45316;SDS011;31053;55.870;37.592;2024-03-17T17:57:59;37.50;;;7.43;;
45316;SDS011;31053;55.870;37.592;2024-03-17T18:01:07;25.42;;;4.45;;
45316;SDS011;31053;55.870;37.592;2024-03-17T18:04:12;20.98;;;5.40;;
45316;SDS011;31053;55.870;37.592;2024-03-17T18:07:16;29.45;;;6.88;;
45316;SDS011;31053;55.870;37.592;2024-03-17T18:10:21;30.90;;;6.43;;
45316;SDS011;31053;55.870;37.592;2024-03-17T18:13:26;23.38;;;4.57;;
45316;SDS011;31053;55.870;37.592;2024-03-17T18:16:32;32.80;;;6.97;;
45316;SDS011;31053;55.870;37.592;2024-03-17T18:19:39;54.10;;;7.30;;
45316;SDS011;31053;55.870;37.592;2024-03-17T18:22:44;34.17;;;5.93;;
45316;SDS011;31053;55.870;37.592;2024-03-17T18:25:49;32.65;;;8.27;;
45316;SDS011;31053;55.870;37.592;2024-03-17T18:28:55;28.17;;;5.47;;
45316;SDS011;31053;55.870;37.592;2024-03-17T18:31:59;37.88;;;8.63;;
45316;SDS011;31053;55.870;37.592;2024-03-17T18:35:05;26.23;;;6.13;;
45316;SDS011;31053;55.870;37.592;2024-03-17T18:38:09;57.60;;;9.98;;
45316;SDS011;31053;55.870;37.592;2024-03-17T18:41:14;37.42;;;6.20;;
45316;SDS011;31053;55.870;37.592;2024-03-17T18:44:18;44.35;;;7.13;;
45316;SDS011;31053;55.870;37.592;2024-03-17T18:47:23;39.38;;;8.27;;